sensor_id;sensor_type;location;lat;lon;timestamp;temperature;humidity
5775;DHT22;2913;51.120;6.772;2022-12-17T00:01:40;-0.40;99.90
5775;DHT22;2913;51.120;6.772;2022-12-17T00:04:27;-0.30;99.90
5775;DHT22;2913;51.120;6.772;2022-12-17T00:07:11;-0.30;99.90
5775;DHT22;2913;51.120;6.772;2022-12-17T00:09:55;-0.40;99.90
5775;DHT22;2913;51.120;6.772;2022-12-17T00:12:39;-0.40;99.90
5775;DHT22;2913;51.120;6.772;2022-12-17T00:15:26;-0.40;99.90
5775;DHT22;2913;51.120;6.772;2022-12-17T00:18:10;-0.40;99.90
5775;DHT22;2913;51.120;6.772;2022-12-17T00:21:00;-0.40;99.90
5775;DHT22;2913;51.120;6.772;2022-12-17T00:23:45;-0.40;99.90
5775;DHT22;2913;51.120;6.772;2022-12-17T00:26:29;-0.40;99.90
5775;DHT22;2913;51.120;6.772;2022-12-17T00:29:13;-0.40;99.90
5775;DHT22;2913;51.120;6.772;2022-12-17T00:31:58;-0.50;99.90
5775;DHT22;2913;51.120;6.772;2022-12-17T00:34:42;-0.40;99.90
5775;DHT22;2913;51.120;6.772;2022-12-17T00:37:27;-0.50;99.90
5775;DHT22;2913;51.120;6.772;2022-12-17T00:40:11;-0.60;99.90
5775;DHT22;2913;51.120;6.772;2022-12-17T00:43:03;-0.50;99.90
5775;DHT22;2913;51.120;6.772;2022-12-17T00:45:48;-0.50;99.90
5775;DHT22;2913;51.120;6.772;2022-12-17T00:48:33;-0.40;99.90
5775;DHT22;2913;51.120;6.772;2022-12-17T00:51:17;-0.30;99.90
5775;DHT22;2913;51.120;6.772;2022-12-17T00:54:01;-0.20;99.90
5775;DHT22;2913;51.120;6.772;2022-12-17T00:56:48;-0.10;99.90
5775;DHT22;2913;51.120;6.772;2022-12-17T00:59:32;-0.10;99.90
5775;DHT22;2913;51.120;6.772;2022-12-17T01:02:16;-0.10;99.90
5775;DHT22;2913;51.120;6.772;2022-12-17T01:05:00;-0.10;99.90
5775;DHT22;2913;51.120;6.772;2022-12-17T01:07:47;0.00;99.90
5775;DHT22;2913;51.120;6.772;2022-12-17T01:10:33;0.00;99.90
5775;DHT22;2913;51.120;6.772;2022-12-17T01:13:21;0.00;99.90
5775;DHT22;2913;51.120;6.772;2022-12-17T01:16:08;0.00;99.90
5775;DHT22;2913;51.120;6.772;2022-12-17T01:18:56;0.00;99.90
5775;DHT22;2913;51.120;6.772;2022-12-17T01:21:43;0.00;99.90
5775;DHT22;2913;51.120;6.772;2022-12-17T01:24:29;0.00;99.90
5775;DHT22;2913;51.120;6.772;2022-12-17T01:27:14;0.00;99.90
5775;DHT22;2913;51.120;6.772;2022-12-17T01:29:58;0.00;99.90
5775;DHT22;2913;51.120;6.772;2022-12-17T01:32:42;0.00;99.90
5775;DHT22;2913;51.120;6.772;2022-12-17T01:35:26;0.00;99.90
5775;DHT22;2913;51.120;6.772;2022-12-17T01:38:12;-0.10;99.90
5775;DHT22;2913;51.120;6.772;2022-12-17T01:40:56;-0.10;99.90
5775;DHT22;2913;51.120;6.772;2022-12-17T01:43:46;-0.10;99.90
5775;DHT22;2913;51.120;6.772;2022-12-17T01:46:34;0.00;99.90
5775;DHT22;2913;51.120;6.772;2022-12-17T01:49:21;0.00;99.90
5775;DHT22;2913;51.120;6.772;2022-12-17T01:52:07;0.00;99.90
5775;DHT22;2913;51.120;6.772;2022-12-17T01:54:53;0.00;99.90
5775;DHT22;2913;51.120;6.772;2022-12-17T01:57:37;-0.10;99.90
5775;DHT22;2913;51.120;6.772;2022-12-17T02:00:22;-0.10;99.90
5775;DHT22;2913;51.120;6.772;2022-12-17T02:03:15;0.00;99.90
5775;DHT22;2913;51.120;6.772;2022-12-17T02:06:11;-0.10;99.90
5775;DHT22;2913;51.120;6.772;2022-12-17T02:09:21;0.00;99.90
5775;DHT22;2913;51.120;6.772;2022-12-17T02:12:21;0.00;99.90
5775;DHT22;2913;51.120;6.772;2022-12-17T02:15:25;-0.10;99.90
5775;DHT22;2913;51.120;6.772;2022-12-17T02:18:17;0.00;99.90
5775;DHT22;2913;51.120;6.772;2022-12-17T02:21:05;-0.10;99.90
5775;DHT22;2913;51.120;6.772;2022-12-17T02:26:54;-0.10;99.90
5775;DHT22;2913;51.120;6.772;2022-12-17T02:29:49;-0.10;99.90
5775;DHT22;2913;51.120;6.772;2022-12-17T02:32:36;-0.10;99.90
5775;DHT22;2913;51.120;6.772;2022-12-17T02:35:30;-0.10;99.90
5775;DHT22;2913;51.120;6.772;2022-12-17T02:38:18;-0.10;99.90
5775;DHT22;2913;51.120;6.772;2022-12-17T02:41:04;-0.10;99.90
5775;DHT22;2913;51.120;6.772;2022-12-17T02:43:50;-0.10;99.90
5775;DHT22;2913;51.120;6.772;2022-12-17T02:46:38;-0.10;99.90
5775;DHT22;2913;51.120;6.772;2022-12-17T02:49:25;-0.10;99.90
5775;DHT22;2913;51.120;6.772;2022-12-17T02:52:10;-0.10;99.90
5775;DHT22;2913;51.120;6.772;2022-12-17T02:54:55;-0.10;99.90
5775;DHT22;2913;51.120;6.772;2022-12-17T02:57:39;-0.10;99.90
5775;DHT22;2913;51.120;6.772;2022-12-17T03:00:23;-0.10;99.90
5775;DHT22;2913;51.120;6.772;2022-12-17T03:03:07;-0.10;99.90
5775;DHT22;2913;51.120;6.772;2022-12-17T03:05:51;0.00;99.90
5775;DHT22;2913;51.120;6.772;2022-12-17T03:08:38;-0.10;99.90
5775;DHT22;2913;51.120;6.772;2022-12-17T03:11:27;-0.10;99.90
5775;DHT22;2913;51.120;6.772;2022-12-17T03:14:11;-0.20;99.90
5775;DHT22;2913;51.120;6.772;2022-12-17T03:16:55;-0.20;99.90
5775;DHT22;2913;51.120;6.772;2022-12-17T03:19:39;-0.10;99.90
5775;DHT22;2913;51.120;6.772;2022-12-17T03:22:23;-0.10;99.90
5775;DHT22;2913;51.120;6.772;2022-12-17T03:25:10;-0.10;99.90
5775;DHT22;2913;51.120;6.772;2022-12-17T03:27:54;-0.20;99.90
5775;DHT22;2913;51.120;6.772;2022-12-17T03:30:38;-0.20;99.90
5775;DHT22;2913;51.120;6.772;2022-12-17T03:33:22;-0.20;99.90
5775;DHT22;2913;51.120;6.772;2022-12-17T03:36:06;-0.20;99.90
5775;DHT22;2913;51.120;6.772;2022-12-17T03:38:51;-0.20;99.90
5775;DHT22;2913;51.120;6.772;2022-12-17T03:41:35;-0.20;99.90
5775;DHT22;2913;51.120;6.772;2022-12-17T03:44:19;-0.20;99.90
5775;DHT22;2913;51.120;6.772;2022-12-17T03:47:03;-0.20;99.90
5775;DHT22;2913;51.120;6.772;2022-12-17T03:49:47;-0.20;99.90
5775;DHT22;2913;51.120;6.772;2022-12-17T03:52:31;-0.20;99.90
5775;DHT22;2913;51.120;6.772;2022-12-17T03:55:16;-0.20;99.90
5775;DHT22;2913;51.120;6.772;2022-12-17T03:58:02;-0.20;99.90
5775;DHT22;2913;51.120;6.772;2022-12-17T04:00:46;-0.20;99.90
5775;DHT22;2913;51.120;6.772;2022-12-17T04:03:31;-0.20;99.90
5775;DHT22;2913;51.120;6.772;2022-12-17T04:06:15;-0.30;99.90
5775;DHT22;2913;51.120;6.772;2022-12-17T04:09:01;-0.30;99.90
5775;DHT22;2913;51.120;6.772;2022-12-17T04:11:45;-0.30;99.90
5775;DHT22;2913;51.120;6.772;2022-12-17T04:14:29;-0.30;99.90
5775;DHT22;2913;51.120;6.772;2022-12-17T04:17:16;-0.20;99.90
5775;DHT22;2913;51.120;6.772;2022-12-17T04:20:00;-0.30;99.90
5775;DHT22;2913;51.120;6.772;2022-12-17T04:22:44;-0.20;99.90
5775;DHT22;2913;51.120;6.772;2022-12-17T04:25:29;-0.20;99.90
5775;DHT22;2913;51.120;6.772;2022-12-17T04:28:13;-0.20;99.90
5775;DHT22;2913;51.120;6.772;2022-12-17T04:30:59;-0.20;99.90
5775;DHT22;2913;51.120;6.772;2022-12-17T04:33:44;-0.30;99.90
5775;DHT22;2913;51.120;6.772;2022-12-17T04:36:28;-0.30;99.90
5775;DHT22;2913;51.120;6.772;2022-12-17T04:39:12;-0.30;99.90
5775;DHT22;2913;51.120;6.772;2022-12-17T04:41:56;-0.30;99.90
5775;DHT22;2913;51.120;6.772;2022-12-17T04:44:40;-0.40;99.90
5775;DHT22;2913;51.120;6.772;2022-12-17T04:47:24;-0.40;99.90
5775;DHT22;2913;51.120;6.772;2022-12-17T04:50:08;-0.40;99.90
5775;DHT22;2913;51.120;6.772;2022-12-17T04:53:02;-0.40;99.90
5775;DHT22;2913;51.120;6.772;2022-12-17T04:55:46;-0.40;99.90
5775;DHT22;2913;51.120;6.772;2022-12-17T04:58:32;-0.40;99.90
5775;DHT22;2913;51.120;6.772;2022-12-17T05:01:16;-0.30;99.90
5775;DHT22;2913;51.120;6.772;2022-12-17T05:04:00;-0.20;99.90
5775;DHT22;2913;51.120;6.772;2022-12-17T05:06:44;-0.20;99.90
5775;DHT22;2913;51.120;6.772;2022-12-17T05:09:28;-0.20;99.90
5775;DHT22;2913;51.120;6.772;2022-12-17T05:12:12;-0.30;99.90
5775;DHT22;2913;51.120;6.772;2022-12-17T05:14:56;-0.40;99.90
5775;DHT22;2913;51.120;6.772;2022-12-17T05:17:40;-0.30;99.90
5775;DHT22;2913;51.120;6.772;2022-12-17T05:20:27;-0.40;99.90
5775;DHT22;2913;51.120;6.772;2022-12-17T05:23:11;-0.40;99.90
5775;DHT22;2913;51.120;6.772;2022-12-17T05:28:46;-0.30;99.90
5775;DHT22;2913;51.120;6.772;2022-12-17T05:31:31;-0.40;99.90
5775;DHT22;2913;51.120;6.772;2022-12-17T05:34:14;-0.50;99.90
5775;DHT22;2913;51.120;6.772;2022-12-17T05:36:59;-0.50;99.90
5775;DHT22;2913;51.120;6.772;2022-12-17T05:39:45;-0.70;99.90
5775;DHT22;2913;51.120;6.772;2022-12-17T05:42:29;-0.70;99.90
5775;DHT22;2913;51.120;6.772;2022-12-17T05:45:27;-0.70;99.90
5775;DHT22;2913;51.120;6.772;2022-12-17T05:48:14;-0.80;99.90
5775;DHT22;2913;51.120;6.772;2022-12-17T05:50:58;-0.80;99.90
5775;DHT22;2913;51.120;6.772;2022-12-17T05:53:42;-0.80;99.90
5775;DHT22;2913;51.120;6.772;2022-12-17T05:56:26;-0.70;99.90
5775;DHT22;2913;51.120;6.772;2022-12-17T05:59:10;-0.70;99.90
5775;DHT22;2913;51.120;6.772;2022-12-17T06:01:57;-0.70;99.90
5775;DHT22;2913;51.120;6.772;2022-12-17T06:04:41;-0.70;99.90
5775;DHT22;2913;51.120;6.772;2022-12-17T06:07:25;-0.80;99.90
5775;DHT22;2913;51.120;6.772;2022-12-17T06:10:09;-0.80;99.90
5775;DHT22;2913;51.120;6.772;2022-12-17T06:12:57;-0.80;99.90
5775;DHT22;2913;51.120;6.772;2022-12-17T06:15:41;-0.80;99.90
5775;DHT22;2913;51.120;6.772;2022-12-17T06:18:30;-0.70;99.90
5775;DHT22;2913;51.120;6.772;2022-12-17T06:21:14;-0.70;99.90
5775;DHT22;2913;51.120;6.772;2022-12-17T06:23:58;-0.80;99.90
5775;DHT22;2913;51.120;6.772;2022-12-17T06:26:42;-0.90;99.90
5775;DHT22;2913;51.120;6.772;2022-12-17T06:29:29;-0.90;99.90
5775;DHT22;2913;51.120;6.772;2022-12-17T06:32:15;-0.90;99.90
5775;DHT22;2913;51.120;6.772;2022-12-17T06:35:00;-1.10;99.90
5775;DHT22;2913;51.120;6.772;2022-12-17T06:37:44;-1.10;99.90
5775;DHT22;2913;51.120;6.772;2022-12-17T06:40:28;-1.10;99.90
5775;DHT22;2913;51.120;6.772;2022-12-17T06:43:12;-1.20;99.90
5775;DHT22;2913;51.120;6.772;2022-12-17T06:45:58;-1.30;99.90
5775;DHT22;2913;51.120;6.772;2022-12-17T06:48:45;-1.30;99.90
5775;DHT22;2913;51.120;6.772;2022-12-17T06:51:29;-1.40;99.90
5775;DHT22;2913;51.120;6.772;2022-12-17T06:54:16;-1.30;99.90
5775;DHT22;2913;51.120;6.772;2022-12-17T06:57:02;-1.40;99.90
5775;DHT22;2913;51.120;6.772;2022-12-17T06:59:47;-1.50;99.90
5775;DHT22;2913;51.120;6.772;2022-12-17T07:02:31;-1.40;99.90
5775;DHT22;2913;51.120;6.772;2022-12-17T07:05:15;-1.40;99.90
5775;DHT22;2913;51.120;6.772;2022-12-17T07:07:59;-1.50;99.90
5775;DHT22;2913;51.120;6.772;2022-12-17T07:10:43;-1.40;99.90
5775;DHT22;2913;51.120;6.772;2022-12-17T07:13:27;-1.40;99.90
5775;DHT22;2913;51.120;6.772;2022-12-17T07:16:12;-1.40;99.90
5775;DHT22;2913;51.120;6.772;2022-12-17T07:18:56;-1.40;99.90
5775;DHT22;2913;51.120;6.772;2022-12-17T07:21:40;-1.60;99.90
5775;DHT22;2913;51.120;6.772;2022-12-17T07:24:24;-1.70;99.90
5775;DHT22;2913;51.120;6.772;2022-12-17T07:27:08;-1.70;99.90
5775;DHT22;2913;51.120;6.772;2022-12-17T07:29:54;-1.80;99.90
5775;DHT22;2913;51.120;6.772;2022-12-17T07:33:00;-1.70;99.90
5775;DHT22;2913;51.120;6.772;2022-12-17T07:35:46;-1.70;99.90
5775;DHT22;2913;51.120;6.772;2022-12-17T07:38:31;-1.80;99.90
5775;DHT22;2913;51.120;6.772;2022-12-17T07:41:15;-1.70;99.90
5775;DHT22;2913;51.120;6.772;2022-12-17T07:43:59;-1.80;99.90
5775;DHT22;2913;51.120;6.772;2022-12-17T07:46:44;-1.90;99.90
5775;DHT22;2913;51.120;6.772;2022-12-17T07:49:30;-1.90;99.90
5775;DHT22;2913;51.120;6.772;2022-12-17T07:52:14;-1.80;99.90
5775;DHT22;2913;51.120;6.772;2022-12-17T07:55:01;-2.00;99.90
5775;DHT22;2913;51.120;6.772;2022-12-17T07:57:45;-2.00;99.90
5775;DHT22;2913;51.120;6.772;2022-12-17T08:00:29;-2.00;99.90
5775;DHT22;2913;51.120;6.772;2022-12-17T08:03:13;-2.10;99.90
5775;DHT22;2913;51.120;6.772;2022-12-17T08:05:58;-2.20;99.90
5775;DHT22;2913;51.120;6.772;2022-12-17T08:08:42;-2.30;99.90
5775;DHT22;2913;51.120;6.772;2022-12-17T08:11:27;-2.40;99.90
5775;DHT22;2913;51.120;6.772;2022-12-17T08:14:13;-2.40;99.90
5775;DHT22;2913;51.120;6.772;2022-12-17T08:16:57;-2.40;99.90
5775;DHT22;2913;51.120;6.772;2022-12-17T08:19:42;-2.40;99.90
5775;DHT22;2913;51.120;6.772;2022-12-17T08:22:26;-2.50;99.90
5775;DHT22;2913;51.120;6.772;2022-12-17T08:25:12;-2.40;99.90
5775;DHT22;2913;51.120;6.772;2022-12-17T08:27:59;-2.40;99.90
5775;DHT22;2913;51.120;6.772;2022-12-17T08:30:47;-2.40;99.90
5775;DHT22;2913;51.120;6.772;2022-12-17T08:33:31;-2.50;99.90
5775;DHT22;2913;51.120;6.772;2022-12-17T08:36:15;-2.50;99.90
5775;DHT22;2913;51.120;6.772;2022-12-17T08:39:00;-2.70;99.90
5775;DHT22;2913;51.120;6.772;2022-12-17T08:41:44;-2.50;99.90
5775;DHT22;2913;51.120;6.772;2022-12-17T08:44:28;-2.70;99.90
5775;DHT22;2913;51.120;6.772;2022-12-17T08:47:12;-2.70;99.90
5775;DHT22;2913;51.120;6.772;2022-12-17T08:50:07;-2.70;99.90
5775;DHT22;2913;51.120;6.772;2022-12-17T08:53:01;-2.80;99.90
5775;DHT22;2913;51.120;6.772;2022-12-17T08:55:46;-2.70;99.90
5775;DHT22;2913;51.120;6.772;2022-12-17T08:58:30;-2.80;99.90
5775;DHT22;2913;51.120;6.772;2022-12-17T09:01:14;-2.80;99.90
5775;DHT22;2913;51.120;6.772;2022-12-17T09:03:58;-2.80;99.90
5775;DHT22;2913;51.120;6.772;2022-12-17T09:06:42;-2.90;99.90
5775;DHT22;2913;51.120;6.772;2022-12-17T09:09:27;-3.00;99.90
5775;DHT22;2913;51.120;6.772;2022-12-17T09:12:11;-3.10;99.90
5775;DHT22;2913;51.120;6.772;2022-12-17T09:14:57;-3.20;99.90
5775;DHT22;2913;51.120;6.772;2022-12-17T09:17:44;-3.20;99.90
5775;DHT22;2913;51.120;6.772;2022-12-17T09:20:28;-3.20;99.90
5775;DHT22;2913;51.120;6.772;2022-12-17T09:23:16;-3.20;99.90
5775;DHT22;2913;51.120;6.772;2022-12-17T09:26:00;-3.40;99.90
5775;DHT22;2913;51.120;6.772;2022-12-17T09:28:45;-3.40;99.90
5775;DHT22;2913;51.120;6.772;2022-12-17T09:31:32;-3.40;99.90
5775;DHT22;2913;51.120;6.772;2022-12-17T09:34:17;-3.40;99.90
5775;DHT22;2913;51.120;6.772;2022-12-17T09:37:02;-3.30;99.90
5775;DHT22;2913;51.120;6.772;2022-12-17T09:39:46;-3.20;99.90
5775;DHT22;2913;51.120;6.772;2022-12-17T09:42:40;-3.20;99.90
5775;DHT22;2913;51.120;6.772;2022-12-17T09:45:27;-3.30;99.90
5775;DHT22;2913;51.120;6.772;2022-12-17T09:48:24;-3.30;99.90
5775;DHT22;2913;51.120;6.772;2022-12-17T09:54:02;-3.20;99.90
5775;DHT22;2913;51.120;6.772;2022-12-17T09:56:47;-3.20;99.90
5775;DHT22;2913;51.120;6.772;2022-12-17T09:59:33;-3.10;99.90
5775;DHT22;2913;51.120;6.772;2022-12-17T10:05:08;-3.10;99.90
5775;DHT22;2913;51.120;6.772;2022-12-17T10:07:55;-3.00;99.90
5775;DHT22;2913;51.120;6.772;2022-12-17T10:10:44;-3.00;99.90
5775;DHT22;2913;51.120;6.772;2022-12-17T10:13:30;-3.00;99.90
5775;DHT22;2913;51.120;6.772;2022-12-17T10:19:29;-2.90;99.90
5775;DHT22;2913;51.120;6.772;2022-12-17T10:22:19;-2.80;99.90
5775;DHT22;2913;51.120;6.772;2022-12-17T10:28:14;-2.90;99.90
5775;DHT22;2913;51.120;6.772;2022-12-17T10:31:00;-3.10;99.90
5775;DHT22;2913;51.120;6.772;2022-12-17T10:33:44;-3.10;99.90
5775;DHT22;2913;51.120;6.772;2022-12-17T10:36:30;-3.00;99.90
5775;DHT22;2913;51.120;6.772;2022-12-17T10:39:21;-2.90;99.90
5775;DHT22;2913;51.120;6.772;2022-12-17T10:42:41;-2.80;99.90
5775;DHT22;2913;51.120;6.772;2022-12-17T10:48:29;-2.90;99.90
5775;DHT22;2913;51.120;6.772;2022-12-17T10:54:15;-2.80;99.90
5775;DHT22;2913;51.120;6.772;2022-12-17T10:57:01;-2.60;99.90
5775;DHT22;2913;51.120;6.772;2022-12-17T10:59:47;-2.70;99.90
5775;DHT22;2913;51.120;6.772;2022-12-17T11:02:32;-2.50;99.90
5775;DHT22;2913;51.120;6.772;2022-12-17T11:05:27;-2.60;99.90
5775;DHT22;2913;51.120;6.772;2022-12-17T11:08:14;-2.60;99.90
5775;DHT22;2913;51.120;6.772;2022-12-17T11:11:06;-2.60;99.90
5775;DHT22;2913;51.120;6.772;2022-12-17T11:13:52;-2.60;99.90
5775;DHT22;2913;51.120;6.772;2022-12-17T11:16:42;-2.60;99.90
5775;DHT22;2913;51.120;6.772;2022-12-17T11:19:35;-2.50;99.90
5775;DHT22;2913;51.120;6.772;2022-12-17T11:22:27;-2.50;99.90
5775;DHT22;2913;51.120;6.772;2022-12-17T11:25:26;-2.40;99.90
5775;DHT22;2913;51.120;6.772;2022-12-17T11:28:24;-2.40;99.90
5775;DHT22;2913;51.120;6.772;2022-12-17T11:34:45;-2.50;99.90
5775;DHT22;2913;51.120;6.772;2022-12-17T11:38:25;-2.60;99.90
5775;DHT22;2913;51.120;6.772;2022-12-17T11:40:54;-2.50;99.90
5775;DHT22;2913;51.120;6.772;2022-12-17T11:44:03;-2.50;99.90
5775;DHT22;2913;51.120;6.772;2022-12-17T11:50:11;-2.20;99.90
5775;DHT22;2913;51.120;6.772;2022-12-17T11:53:03;-2.20;99.90
5775;DHT22;2913;51.120;6.772;2022-12-17T12:01:29;-2.20;99.90
5775;DHT22;2913;51.120;6.772;2022-12-17T12:04:51;-2.30;99.90
5775;DHT22;2913;51.120;6.772;2022-12-17T12:13:53;-2.00;99.90
5775;DHT22;2913;51.120;6.772;2022-12-17T12:17:02;-2.10;99.90
5775;DHT22;2913;51.120;6.772;2022-12-17T12:23:25;-2.20;99.90
5775;DHT22;2913;51.120;6.772;2022-12-17T12:26:22;-2.30;99.90
5775;DHT22;2913;51.120;6.772;2022-12-17T12:29:14;-2.30;99.90
5775;DHT22;2913;51.120;6.772;2022-12-17T12:35:27;-2.30;99.90
5775;DHT22;2913;51.120;6.772;2022-12-17T12:38:20;-2.30;99.90
5775;DHT22;2913;51.120;6.772;2022-12-17T12:41:41;-2.40;99.90
5775;DHT22;2913;51.120;6.772;2022-12-17T12:44:36;-2.40;99.90
5775;DHT22;2913;51.120;6.772;2022-12-17T12:47:39;-2.20;99.90
5775;DHT22;2913;51.120;6.772;2022-12-17T12:50:34;-2.00;99.90
5775;DHT22;2913;51.120;6.772;2022-12-17T12:53:22;-2.10;99.90
5775;DHT22;2913;51.120;6.772;2022-12-17T12:56:33;-2.20;99.90
5775;DHT22;2913;51.120;6.772;2022-12-17T12:59:28;-2.20;99.90
5775;DHT22;2913;51.120;6.772;2022-12-17T13:05:21;-2.30;99.90
5775;DHT22;2913;51.120;6.772;2022-12-17T13:10:35;-2.10;99.90
5775;DHT22;2913;51.120;6.772;2022-12-17T13:13:32;-2.10;99.90
5775;DHT22;2913;51.120;6.772;2022-12-17T13:16:03;-2.10;99.90
5775;DHT22;2913;51.120;6.772;2022-12-17T13:18:41;-2.10;99.90
5775;DHT22;2913;51.120;6.772;2022-12-17T13:23:44;-1.80;99.90
5775;DHT22;2913;51.120;6.772;2022-12-17T13:31:39;-1.90;99.90
5775;DHT22;2913;51.120;6.772;2022-12-17T13:34:13;-2.00;99.90
5775;DHT22;2913;51.120;6.772;2022-12-17T13:39:41;-2.20;99.90
5775;DHT22;2913;51.120;6.772;2022-12-17T13:42:26;-2.20;99.90
5775;DHT22;2913;51.120;6.772;2022-12-17T13:44:52;-2.20;99.90
5775;DHT22;2913;51.120;6.772;2022-12-17T13:47:27;-2.20;99.90
5775;DHT22;2913;51.120;6.772;2022-12-17T13:49:59;-2.30;99.90
5775;DHT22;2913;51.120;6.772;2022-12-17T13:52:27;-2.20;99.90
5775;DHT22;2913;51.120;6.772;2022-12-17T13:54:53;-2.20;99.90
5775;DHT22;2913;51.120;6.772;2022-12-17T13:57:30;-2.20;99.90
5775;DHT22;2913;51.120;6.772;2022-12-17T13:59:59;-2.20;99.90
5775;DHT22;2913;51.120;6.772;2022-12-17T14:02:32;-2.20;99.90
5775;DHT22;2913;51.120;6.772;2022-12-17T14:05:01;-2.20;99.90
5775;DHT22;2913;51.120;6.772;2022-12-17T14:07:28;-2.20;99.90
5775;DHT22;2913;51.120;6.772;2022-12-17T14:09:55;-2.10;99.90
5775;DHT22;2913;51.120;6.772;2022-12-17T14:12:23;-2.00;99.90
5775;DHT22;2913;51.120;6.772;2022-12-17T14:17:34;-2.10;99.90
5775;DHT22;2913;51.120;6.772;2022-12-17T14:20:21;-2.00;99.90
5775;DHT22;2913;51.120;6.772;2022-12-17T14:25:38;-1.90;99.90
5775;DHT22;2913;51.120;6.772;2022-12-17T14:28:34;-1.90;99.90
5775;DHT22;2913;51.120;6.772;2022-12-17T14:31:19;-1.90;99.90
5775;DHT22;2913;51.120;6.772;2022-12-17T14:33:45;-2.00;99.90
5775;DHT22;2913;51.120;6.772;2022-12-17T14:39:01;-2.00;99.90
5775;DHT22;2913;51.120;6.772;2022-12-17T14:41:35;-2.00;99.90
5775;DHT22;2913;51.120;6.772;2022-12-17T14:44:24;-2.10;99.90
5775;DHT22;2913;51.120;6.772;2022-12-17T14:47:10;-2.00;99.90
5775;DHT22;2913;51.120;6.772;2022-12-17T15:00:49;-1.90;99.90
5775;DHT22;2913;51.120;6.772;2022-12-17T15:03:26;-1.90;99.90
5775;DHT22;2913;51.120;6.772;2022-12-17T15:05:57;-2.10;99.90
5775;DHT22;2913;51.120;6.772;2022-12-17T15:08:24;-2.00;99.90
5775;DHT22;2913;51.120;6.772;2022-12-17T15:10:51;-2.00;99.90
5775;DHT22;2913;51.120;6.772;2022-12-17T15:13:17;-1.90;99.90
5775;DHT22;2913;51.120;6.772;2022-12-17T15:15:42;-1.90;99.90
5775;DHT22;2913;51.120;6.772;2022-12-17T15:18:11;-1.90;99.90
5775;DHT22;2913;51.120;6.772;2022-12-17T15:20:41;-1.90;99.90
5775;DHT22;2913;51.120;6.772;2022-12-17T15:23:19;-1.90;99.90
5775;DHT22;2913;51.120;6.772;2022-12-17T15:25:46;-1.90;99.90
5775;DHT22;2913;51.120;6.772;2022-12-17T15:28:16;-1.90;99.90
5775;DHT22;2913;51.120;6.772;2022-12-17T15:30:45;-2.00;99.90
5775;DHT22;2913;51.120;6.772;2022-12-17T15:33:11;-1.90;99.90
5775;DHT22;2913;51.120;6.772;2022-12-17T15:35:37;-1.90;99.90
5775;DHT22;2913;51.120;6.772;2022-12-17T15:38:06;-1.80;99.90
5775;DHT22;2913;51.120;6.772;2022-12-17T15:40:39;-1.90;99.90
5775;DHT22;2913;51.120;6.772;2022-12-17T15:43:07;-1.90;99.90
5775;DHT22;2913;51.120;6.772;2022-12-17T15:45:40;-1.90;99.90
5775;DHT22;2913;51.120;6.772;2022-12-17T15:48:06;-1.90;99.90
5775;DHT22;2913;51.120;6.772;2022-12-17T15:50:32;-1.90;99.90
5775;DHT22;2913;51.120;6.772;2022-12-17T15:52:58;-2.00;99.90
5775;DHT22;2913;51.120;6.772;2022-12-17T15:55:23;-2.10;99.90
5775;DHT22;2913;51.120;6.772;2022-12-17T15:57:49;-2.10;99.90
5775;DHT22;2913;51.120;6.772;2022-12-17T16:00:15;-2.10;99.90
5775;DHT22;2913;51.120;6.772;2022-12-17T16:02:40;-2.00;99.90
5775;DHT22;2913;51.120;6.772;2022-12-17T16:05:07;-2.10;99.90
5775;DHT22;2913;51.120;6.772;2022-12-17T16:07:32;-2.10;99.90
5775;DHT22;2913;51.120;6.772;2022-12-17T16:10:03;-2.10;99.90
5775;DHT22;2913;51.120;6.772;2022-12-17T16:12:29;-2.20;99.90
5775;DHT22;2913;51.120;6.772;2022-12-17T16:14:54;-2.30;99.90
5775;DHT22;2913;51.120;6.772;2022-12-17T16:17:20;-2.30;99.90
5775;DHT22;2913;51.120;6.772;2022-12-17T16:19:45;-2.40;99.90
5775;DHT22;2913;51.120;6.772;2022-12-17T16:22:13;-2.40;99.90
5775;DHT22;2913;51.120;6.772;2022-12-17T16:24:39;-2.30;99.90
5775;DHT22;2913;51.120;6.772;2022-12-17T16:27:06;-2.30;99.90
5775;DHT22;2913;51.120;6.772;2022-12-17T16:29:31;-2.30;99.90
5775;DHT22;2913;51.120;6.772;2022-12-17T16:32:00;-2.30;99.90
5775;DHT22;2913;51.120;6.772;2022-12-17T16:34:25;-2.30;99.90
5775;DHT22;2913;51.120;6.772;2022-12-17T16:36:53;-2.30;99.90
5775;DHT22;2913;51.120;6.772;2022-12-17T16:39:19;-2.30;99.90
5775;DHT22;2913;51.120;6.772;2022-12-17T16:41:47;-2.40;99.90
5775;DHT22;2913;51.120;6.772;2022-12-17T16:44:14;-2.40;99.90
5775;DHT22;2913;51.120;6.772;2022-12-17T16:46:43;-2.40;99.90
5775;DHT22;2913;51.120;6.772;2022-12-17T16:51:43;-2.40;99.90
5775;DHT22;2913;51.120;6.772;2022-12-17T16:54:14;-2.50;99.90
5775;DHT22;2913;51.120;6.772;2022-12-17T16:56:42;-2.40;99.90
5775;DHT22;2913;51.120;6.772;2022-12-17T16:59:09;-2.50;99.90
5775;DHT22;2913;51.120;6.772;2022-12-17T17:01:39;-2.50;99.90
5775;DHT22;2913;51.120;6.772;2022-12-17T17:04:08;-2.60;99.90
5775;DHT22;2913;51.120;6.772;2022-12-17T17:06:45;-2.60;99.90
5775;DHT22;2913;51.120;6.772;2022-12-17T17:09:11;-2.60;99.90
5775;DHT22;2913;51.120;6.772;2022-12-17T17:11:37;-2.60;99.90
5775;DHT22;2913;51.120;6.772;2022-12-17T17:14:04;-2.70;99.90
5775;DHT22;2913;51.120;6.772;2022-12-17T17:16:32;-2.80;99.90
5775;DHT22;2913;51.120;6.772;2022-12-17T17:18:59;-2.80;99.90
5775;DHT22;2913;51.120;6.772;2022-12-17T17:21:26;-2.90;99.90
5775;DHT22;2913;51.120;6.772;2022-12-17T17:24:00;-2.90;99.90
5775;DHT22;2913;51.120;6.772;2022-12-17T17:26:27;-2.90;99.90
5775;DHT22;2913;51.120;6.772;2022-12-17T17:28:53;-3.00;99.90
5775;DHT22;2913;51.120;6.772;2022-12-17T17:31:19;-3.00;99.90
5775;DHT22;2913;51.120;6.772;2022-12-17T17:33:49;-3.00;99.90
5775;DHT22;2913;51.120;6.772;2022-12-17T17:36:26;-3.00;99.90
5775;DHT22;2913;51.120;6.772;2022-12-17T17:38:53;-3.00;99.90
5775;DHT22;2913;51.120;6.772;2022-12-17T17:41:23;-3.00;99.90
5775;DHT22;2913;51.120;6.772;2022-12-17T17:44:01;-3.10;99.90
5775;DHT22;2913;51.120;6.772;2022-12-17T17:46:30;-3.00;99.90
5775;DHT22;2913;51.120;6.772;2022-12-17T17:48:57;-3.00;99.90
5775;DHT22;2913;51.120;6.772;2022-12-17T17:51:28;-3.00;99.90
5775;DHT22;2913;51.120;6.772;2022-12-17T17:53:58;-3.00;99.90
5775;DHT22;2913;51.120;6.772;2022-12-17T17:56:28;-2.90;99.90
5775;DHT22;2913;51.120;6.772;2022-12-17T17:58:57;-2.90;99.90
5775;DHT22;2913;51.120;6.772;2022-12-17T18:01:25;-2.90;99.90
5775;DHT22;2913;51.120;6.772;2022-12-17T18:03:58;-2.80;99.90
5775;DHT22;2913;51.120;6.772;2022-12-17T18:06:26;-2.80;99.90
5775;DHT22;2913;51.120;6.772;2022-12-17T18:08:56;-2.90;99.90
5775;DHT22;2913;51.120;6.772;2022-12-17T18:11:28;-2.90;99.90
5775;DHT22;2913;51.120;6.772;2022-12-17T18:13:55;-3.00;99.90
5775;DHT22;2913;51.120;6.772;2022-12-17T18:18:55;-3.10;99.90
5775;DHT22;2913;51.120;6.772;2022-12-17T18:21:21;-3.10;99.90
5775;DHT22;2913;51.120;6.772;2022-12-17T18:23:47;-3.10;99.90
5775;DHT22;2913;51.120;6.772;2022-12-17T18:26:20;-3.10;99.90
5775;DHT22;2913;51.120;6.772;2022-12-17T18:28:51;-3.10;99.90
5775;DHT22;2913;51.120;6.772;2022-12-17T18:31:22;-3.20;99.90
5775;DHT22;2913;51.120;6.772;2022-12-17T18:33:54;-3.10;99.90
5775;DHT22;2913;51.120;6.772;2022-12-17T18:36:23;-3.10;99.90
5775;DHT22;2913;51.120;6.772;2022-12-17T18:39:16;-3.10;99.90
5775;DHT22;2913;51.120;6.772;2022-12-17T18:41:42;-3.10;99.90
5775;DHT22;2913;51.120;6.772;2022-12-17T18:44:28;-3.10;99.90
5775;DHT22;2913;51.120;6.772;2022-12-17T18:46:54;-3.10;99.90
5775;DHT22;2913;51.120;6.772;2022-12-17T18:49:22;-3.10;99.90
5775;DHT22;2913;51.120;6.772;2022-12-17T18:51:49;-3.20;99.90
5775;DHT22;2913;51.120;6.772;2022-12-17T18:54:23;-3.20;99.90
5775;DHT22;2913;51.120;6.772;2022-12-17T18:56:52;-3.20;99.90
5775;DHT22;2913;51.120;6.772;2022-12-17T18:59:21;-3.30;99.90
5775;DHT22;2913;51.120;6.772;2022-12-17T19:01:47;-3.30;99.90
5775;DHT22;2913;51.120;6.772;2022-12-17T19:04:16;-3.30;99.90
5775;DHT22;2913;51.120;6.772;2022-12-17T19:06:42;-3.30;99.90